createdAt,value
2018-07-05T00:02:28.798Z,95044.59
2018-07-05T00:05:08.860Z,95049.83
2018-07-05T00:07:49.116Z,95050.47
2018-07-05T00:10:28.960Z,95040.66
2018-07-05T00:13:09.414Z,95038.87
2018-07-05T00:15:49.455Z,95037.98
2018-07-05T00:18:29.633Z,95044.67
2018-07-05T00:21:09.657Z,95047.34
2018-07-05T00:23:50.037Z,95048.70
2018-07-05T00:26:29.983Z,95058.72
2018-07-05T00:29:10.373Z,95055.95
2018-07-05T00:31:50.178Z,95060.60
2018-07-05T00:34:30.148Z,95052.23
2018-07-05T00:37:10.213Z,95049.27
2018-07-05T00:39:50.468Z,95047.23
2018-07-05T00:42:30.290Z,95048.23
2018-07-05T00:45:10.287Z,95043.12
2018-07-05T00:47:50.198Z,95041.33
2018-07-05T00:50:29.990Z,95043.33
2018-07-05T00:53:09.885Z,95050.24
2018-07-05T00:55:50.462Z,95046.02
2018-07-05T00:58:30.401Z,95043.11
2018-07-05T01:01:10.531Z,95040.55
2018-07-05T01:03:50.521Z,95044.78
2018-07-05T01:06:30.898Z,95040.77
2018-07-05T01:09:10.725Z,95037.75
2018-07-05T01:11:51.341Z,95037.75
2018-07-05T01:14:31.143Z,95042.22
2018-07-05T01:17:11.278Z,95041.13
2018-07-05T01:19:51.250Z,95033.98
2018-07-05T01:22:31.451Z,95035.08
2018-07-05T01:25:11.514Z,95033.74
2018-07-05T01:27:51.732Z,95029.52
2018-07-05T01:30:31.777Z,95033.08
2018-07-05T01:33:12.069Z,95039.08
2018-07-05T01:35:52.078Z,95038.77
2018-07-05T01:38:32.462Z,95043.78
2018-07-05T01:41:12.240Z,95051.28
2018-07-05T01:43:52.210Z,95041.33
2018-07-05T01:46:32.197Z,95043.98
2018-07-05T01:49:12.331Z,95043.33
2018-07-05T01:51:52.412Z,95049.34
2018-07-05T01:54:32.497Z,95046.43
2018-07-05T01:57:12.593Z,95044.88
2018-07-05T01:59:52.985Z,95047.89
2018-07-05T02:02:33.037Z,95052.45
2018-07-05T02:05:13.136Z,95051.73
2018-07-05T02:07:53.138Z,95049.30
2018-07-05T02:10:33.405Z,95042.16
2018-07-05T02:13:13.351Z,95037.36
2018-07-05T02:15:54.031Z,95037.70
2018-07-05T02:18:33.963Z,95036.14
2018-07-05T02:21:14.843Z,95040.16
2018-07-05T02:23:54.879Z,95040.46
2018-07-05T02:26:35.113Z,95047.14
2018-07-05T02:29:14.999Z,95043.93
2018-07-05T02:31:55.483Z,95051.95
2018-07-05T02:34:35.422Z,95050.83
2018-07-05T02:37:20.913Z,95050.16
2018-07-05T02:40:00.968Z,95057.08
2018-07-05T02:42:41.026Z,95068.87
2018-07-05T02:45:20.942Z,95066.65
2018-07-05T02:48:01.531Z,95074.45
2018-07-05T02:50:41.668Z,95071.00
2018-07-05T02:53:21.890Z,95068.20
2018-07-05T02:56:01.587Z,95068.41
2018-07-05T02:58:42.154Z,95064.64
2018-07-05T03:01:22.316Z,95068.41
2018-07-05T03:04:02.246Z,95062.19
2018-07-05T03:06:42.307Z,95053.50
2018-07-05T03:09:22.574Z,95056.08
2018-07-05T03:12:02.557Z,95058.42
2018-07-05T03:14:43.199Z,95062.64
2018-07-05T03:17:23.131Z,95058.84
2018-07-05T03:20:03.671Z,95057.05
2018-07-05T03:22:43.742Z,95054.50
2018-07-05T03:25:23.985Z,95057.51
2018-07-05T03:28:03.955Z,95065.31
2018-07-05T03:30:44.138Z,95067.11
2018-07-05T03:33:24.272Z,95072.42
2018-07-05T03:36:04.654Z,95069.11
2018-07-05T03:38:45.620Z,95073.33
2018-07-05T03:41:25.535Z,95074.22
2018-07-05T03:44:05.835Z,95070.66
2018-07-05T03:46:45.724Z,95070.91
2018-07-05T03:49:26.078Z,95073.98
2018-07-05T03:52:06.002Z,95075.31
2018-07-05T03:54:46.240Z,95077.56
2018-07-05T03:57:25.962Z,95075.44
2018-07-05T04:00:06.448Z,95077.66
2018-07-05T04:02:46.380Z,95078.98
2018-07-05T04:05:26.467Z,95070.05
2018-07-05T04:08:06.259Z,95071.17
2018-07-05T04:10:46.781Z,95075.72
2018-07-05T04:13:26.797Z,95076.16
2018-07-05T04:16:06.636Z,95070.14
2018-07-05T04:18:46.296Z,95069.91
2018-07-05T04:21:28.619Z,95074.22
2018-07-05T04:24:08.663Z,95075.18
2018-07-05T04:26:48.732Z,95077.78
2018-07-05T04:29:28.536Z,95081.25
2018-07-05T04:32:08.837Z,95077.57
2018-07-05T04:34:48.869Z,95085.30
2018-07-05T04:37:28.860Z,95093.36
2018-07-05T04:40:08.678Z,95093.98
2018-07-05T04:42:48.807Z,95093.30
2018-07-05T04:45:28.665Z,95096.59
2018-07-05T04:48:08.547Z,95097.94
2018-07-05T04:50:48.587Z,95107.87
2018-07-05T04:53:28.955Z,95101.25
2018-07-05T04:56:08.878Z,95092.93
2018-07-05T04:58:49.246Z,95105.42
2018-07-05T05:01:29.840Z,95106.84
2018-07-05T05:04:09.928Z,95104.08
2018-07-05T05:06:49.824Z,95102.38
2018-07-05T05:09:30.086Z,95103.61
2018-07-05T05:12:10.022Z,95105.05
2018-07-05T05:14:50.564Z,95101.48
2018-07-05T05:17:30.555Z,95096.91
2018-07-05T05:20:10.662Z,95098.94
2018-07-05T05:22:50.531Z,95101.27
2018-07-05T05:25:30.817Z,95100.61
2018-07-05T05:28:10.650Z,95087.78
2018-07-05T05:30:51.026Z,95094.28
2018-07-05T05:33:30.768Z,95090.38
2018-07-05T05:36:11.134Z,95099.52
2018-07-05T05:38:51.136Z,95090.16
2018-07-05T05:41:31.748Z,95094.19
2018-07-05T05:44:11.550Z,95100.20
2018-07-05T05:46:51.966Z,95103.66
2018-07-05T05:49:31.998Z,95099.06
2018-07-05T05:52:12.300Z,95103.44
2018-07-05T05:54:52.202Z,95104.89
2018-07-05T05:57:32.559Z,95102.43
2018-07-05T06:00:12.634Z,95099.30
2018-07-05T06:02:53.298Z,95102.43
2018-07-05T06:05:33.374Z,95108.45
2018-07-05T06:08:13.847Z,95108.98
2018-07-05T06:10:53.598Z,95112.45
2018-07-05T06:13:33.954Z,95111.12
2018-07-05T06:16:13.869Z,95103.33
2018-07-05T06:18:54.335Z,95109.77
2018-07-05T06:21:34.279Z,95107.55
2018-07-05T06:24:14.557Z,95103.62
2018-07-05T06:26:54.396Z,95110.89
2018-07-05T06:29:35.297Z,95104.30
2018-07-05T06:32:15.419Z,95095.48
2018-07-05T06:34:55.703Z,95098.16
2018-07-05T06:37:35.819Z,95098.16
2018-07-05T06:40:16.413Z,95087.47
2018-07-05T06:42:56.444Z,95088.80
2018-07-05T06:45:36.851Z,95088.59
2018-07-05T06:48:16.850Z,95087.25
2018-07-05T06:50:57.333Z,95088.80
2018-07-05T06:53:37.175Z,95089.05
2018-07-05T06:56:17.568Z,95083.23
2018-07-05T06:58:57.333Z,95081.66
2018-07-05T07:01:37.598Z,95073.64
2018-07-05T07:04:17.502Z,95081.02
2018-07-05T07:06:57.458Z,95080.33
2018-07-05T07:09:37.281Z,95083.66
2018-07-05T07:12:17.762Z,95080.31
2018-07-05T07:14:57.601Z,95084.89
2018-07-05T07:17:37.810Z,95084.89
2018-07-05T07:20:17.809Z,95080.33
2018-07-05T07:22:58.172Z,95083.13
2018-07-05T07:25:38.117Z,95078.11
2018-07-05T07:28:18.872Z,95075.89
2018-07-05T07:30:59.164Z,95080.78
2018-07-05T07:33:39.103Z,95079.01
2018-07-05T07:36:19.154Z,95078.10
2018-07-05T07:38:59.606Z,95076.13
2018-07-05T07:41:39.341Z,95075.89
2018-07-05T07:44:07.182Z,95080.23
2018-07-05T07:46:34.564Z,95075.67
2018-07-05T07:49:02.042Z,95080.01
2018-07-05T07:51:30.238Z,95080.89
2018-07-05T07:53:57.761Z,95078.13
2018-07-05T07:56:25.217Z,95083.70
2018-07-05T07:58:52.724Z,95068.53
2018-07-05T08:01:20.259Z,95074.00
2018-07-05T08:03:47.813Z,95068.34
2018-07-05T08:06:15.726Z,95066.78
2018-07-05T08:08:43.234Z,95073.67
2018-07-05T08:11:10.695Z,95074.80
2018-07-05T08:13:38.186Z,95064.09
2018-07-05T08:16:05.664Z,95074.12
2018-07-05T08:18:33.155Z,95077.90
2018-07-05T08:21:00.626Z,95066.09
2018-07-05T08:23:28.083Z,95062.77
2018-07-05T08:25:55.540Z,95063.00
2018-07-05T08:28:23.120Z,95065.89
2018-07-05T08:30:50.562Z,95062.98
2018-07-05T08:33:18.457Z,95064.22
2018-07-05T08:35:45.994Z,95055.29
2018-07-05T08:38:13.430Z,95057.84
2018-07-05T08:40:40.950Z,95047.37
2018-07-05T08:43:08.477Z,95047.36
2018-07-05T08:45:36.037Z,95048.48
2018-07-05T08:48:03.864Z,95051.83
2018-07-05T08:50:31.353Z,95060.33
2018-07-05T08:52:58.908Z,95045.14
2018-07-05T08:55:26.398Z,95040.56
2018-07-05T08:57:53.954Z,95033.20
2018-07-05T09:00:21.497Z,95038.89
2018-07-05T09:02:49.042Z,95042.95
2018-07-05T09:05:16.506Z,95030.66
2018-07-05T09:07:44.400Z,95027.44
2018-07-05T09:10:11.791Z,95023.63
2018-07-05T09:12:39.194Z,95033.55
2018-07-05T09:15:07.078Z,95027.19
2018-07-05T09:17:34.698Z,95027.08
2018-07-05T09:20:02.191Z,95027.77
2018-07-05T09:22:30.078Z,95024.64
2018-07-05T09:24:57.628Z,95014.83
2018-07-05T09:27:25.168Z,95023.86
2018-07-05T09:29:52.676Z,95020.83
2018-07-05T09:32:20.198Z,95017.50
2018-07-05T09:34:47.639Z,95010.91
2018-07-05T09:37:15.566Z,95009.23
2018-07-05T09:39:49.143Z,95017.72
2018-07-05T09:42:17.819Z,95011.70
2018-07-05T09:44:45.263Z,95008.69
2018-07-05T09:47:12.722Z,95004.78
2018-07-05T09:49:40.606Z,95012.36
2018-07-05T09:52:08.054Z,95015.04
2018-07-05T09:54:35.504Z,95009.03
2018-07-05T09:57:03.501Z,94999.77
2018-07-05T09:59:31.034Z,94994.97
2018-07-05T10:01:58.624Z,94995.17
2018-07-05T10:04:26.413Z,94994.07
2018-07-05T10:06:53.922Z,94985.60
2018-07-05T10:09:21.382Z,94994.97
2018-07-05T10:11:49.373Z,94996.52
2018-07-05T10:14:16.811Z,94995.76
2018-07-05T10:16:44.253Z,94999.42
2018-07-05T10:19:11.954Z,94990.95
2018-07-05T10:21:39.471Z,94996.07
2018-07-05T10:24:07.036Z,94995.87
2018-07-05T10:26:34.825Z,94985.81
2018-07-05T10:29:14.768Z,94981.83
2018-07-05T10:31:54.749Z,94986.50
2018-07-05T10:34:22.274Z,94990.38
2018-07-05T10:36:49.720Z,94989.28
2018-07-05T10:39:17.223Z,94997.66
2018-07-05T10:41:57.138Z,94986.05
2018-07-05T10:44:37.534Z,94985.36
2018-07-05T10:47:17.614Z,94989.27
2018-07-05T10:49:58.043Z,94983.27
2018-07-05T10:52:38.080Z,94978.70
2018-07-05T10:55:18.310Z,94979.02
2018-07-05T10:57:58.365Z,94975.55
2018-07-05T11:00:38.593Z,94974.89
2018-07-05T11:03:18.495Z,94975.20
2018-07-05T11:05:58.774Z,94964.94
2018-07-05T11:08:38.570Z,94966.86
2018-07-05T11:11:19.049Z,94968.55
2018-07-05T11:13:58.842Z,94960.83
2018-07-05T11:16:38.839Z,94965.73
2018-07-05T11:19:18.718Z,94969.19
2018-07-05T11:21:58.604Z,94966.17
2018-07-05T11:24:38.616Z,94953.78
2018-07-05T11:27:18.473Z,94958.28
2018-07-05T11:29:58.322Z,94959.58
2018-07-05T11:32:38.691Z,94959.92
2018-07-05T11:35:18.502Z,94956.36
2018-07-05T11:37:58.900Z,94952.89
2018-07-05T11:40:38.834Z,94948.97
2018-07-05T11:43:19.413Z,94946.49
2018-07-05T11:45:59.261Z,94943.81
2018-07-05T11:48:39.230Z,94937.02
2018-07-05T11:51:19.253Z,94943.42
2018-07-05T11:53:59.727Z,94940.09
2018-07-05T11:56:39.556Z,94936.72
2018-07-05T11:59:20.045Z,94936.48
2018-07-05T12:01:59.938Z,94931.31
2018-07-05T12:04:40.361Z,94939.94
2018-07-05T12:07:20.282Z,94934.59
2018-07-05T12:10:00.792Z,94924.97
2018-07-05T12:12:40.610Z,94921.05
2018-07-05T12:15:20.593Z,94928.00
2018-07-05T12:18:00.358Z,94928.78
2018-07-05T12:20:40.981Z,94929.09
2018-07-05T12:23:20.920Z,94925.11
2018-07-05T12:26:01.328Z,94924.66
2018-07-05T12:28:41.104Z,94921.74
2018-07-05T12:31:21.163Z,94920.64
2018-07-05T12:34:01.039Z,94919.96
2018-07-05T12:36:41.139Z,94926.45
2018-07-05T12:39:21.090Z,94921.54
2018-07-05T12:42:01.222Z,94913.80
2018-07-05T12:44:41.237Z,94916.63
2018-07-05T12:47:21.523Z,94916.64
2018-07-05T12:50:01.350Z,94911.27
2018-07-05T12:52:41.658Z,94903.99
2018-07-05T12:55:21.558Z,94900.42
2018-07-05T12:58:01.848Z,94902.35
2018-07-05T13:00:41.622Z,94902.11
2018-07-05T13:03:22.347Z,94903.02
2018-07-05T13:06:02.174Z,94901.45
2018-07-05T13:08:42.865Z,94906.33
2018-07-05T13:11:22.703Z,94897.44
2018-07-05T13:14:02.582Z,94890.70
2018-07-05T13:16:42.384Z,94889.45
2018-07-05T13:19:22.886Z,94892.48
2018-07-05T13:22:02.936Z,94893.06
2018-07-05T13:24:42.991Z,94892.13
2018-07-05T13:27:22.910Z,94886.48
2018-07-05T13:30:03.059Z,94877.22
2018-07-05T13:32:42.917Z,94882.09
2018-07-05T13:35:23.316Z,94877.09
2018-07-05T13:38:03.453Z,94883.30
2018-07-05T13:40:43.623Z,94876.38
2018-07-05T13:43:26.408Z,94877.52
2018-07-05T13:46:06.895Z,94873.46
2018-07-05T13:48:46.827Z,94873.07
2018-07-05T13:51:27.312Z,94885.88
2018-07-05T13:54:07.551Z,94877.27
2018-07-05T13:56:47.818Z,94883.92
2018-07-05T13:59:27.754Z,94884.41
2018-07-05T14:02:07.761Z,94884.87
2018-07-05T14:04:47.476Z,94884.41
2018-07-05T14:07:27.817Z,94889.95
2018-07-05T14:10:07.775Z,94888.52
2018-07-05T14:12:47.711Z,94878.36
2018-07-05T14:15:27.660Z,94884.16
2018-07-05T14:18:07.684Z,94879.41
2018-07-05T14:20:47.691Z,94879.30
2018-07-05T14:23:27.658Z,94874.94
2018-07-05T14:26:07.887Z,94880.94
2018-07-05T14:28:48.071Z,94874.67
2018-07-05T14:31:28.004Z,94878.25
2018-07-05T14:34:08.330Z,94874.34
2018-07-05T14:36:48.283Z,94868.06
2018-07-05T14:39:28.378Z,94860.57
2018-07-05T14:42:08.302Z,94863.23
2018-07-05T14:44:49.201Z,94863.34
2018-07-05T14:47:29.291Z,94860.92
2018-07-05T14:50:09.602Z,94863.80
2018-07-05T14:52:49.531Z,94858.01
2018-07-05T14:55:29.815Z,94860.23
2018-07-05T14:58:09.733Z,94850.73
2018-07-05T15:00:50.126Z,94858.19
2018-07-05T15:03:29.962Z,94858.33
2018-07-05T15:06:10.481Z,94860.25
2018-07-05T15:08:50.250Z,94858.01
2018-07-05T15:11:30.543Z,94855.77
2018-07-05T15:14:10.467Z,94854.89
2018-07-05T15:16:51.293Z,94857.57
2018-07-05T15:19:31.176Z,94845.61
2018-07-05T15:22:11.659Z,94844.84
2018-07-05T15:24:51.600Z,94846.39
2018-07-05T15:27:31.768Z,94852.21
2018-07-05T15:30:11.562Z,94850.84
2018-07-05T15:32:52.003Z,94848.52
2018-07-05T15:35:31.931Z,94852.83
2018-07-05T15:38:12.418Z,94845.93
2018-07-05T15:40:52.576Z,94849.34
2018-07-05T15:43:32.846Z,94846.36
2018-07-05T15:46:12.751Z,94848.37
2018-07-05T15:48:53.255Z,94844.88
2018-07-05T15:51:33.086Z,94847.67
2018-07-05T15:54:13.064Z,94847.67
2018-07-05T15:56:53.003Z,94845.31
2018-07-05T15:59:32.949Z,94842.11
2018-07-05T16:02:12.969Z,94843.02
2018-07-05T16:04:53.157Z,94839.00
2018-07-05T16:07:33.190Z,94842.46
2018-07-05T16:10:13.500Z,94838.39
2018-07-05T16:12:53.501Z,94836.11
2018-07-05T16:15:33.672Z,94839.11
2018-07-05T16:18:13.606Z,94836.25
2018-07-05T16:20:53.709Z,94836.77
2018-07-05T16:23:33.625Z,94832.47
2018-07-05T16:26:13.896Z,94833.34
2018-07-05T16:28:53.924Z,94835.31
2018-07-05T16:31:34.219Z,94832.27
2018-07-05T16:34:14.236Z,94833.66
2018-07-05T16:36:54.564Z,94831.25
2018-07-05T16:39:34.438Z,94835.51
2018-07-05T16:42:14.464Z,94836.62
2018-07-05T16:44:54.508Z,94826.84
2018-07-05T16:47:34.941Z,94831.92
2018-07-05T16:50:14.858Z,94827.86
2018-07-05T16:52:55.147Z,94833.30
2018-07-05T16:55:34.982Z,94841.46
2018-07-05T16:58:14.953Z,94836.93
2018-07-05T17:00:54.874Z,94831.92
2018-07-05T17:03:35.357Z,94835.23
2018-07-05T17:06:15.200Z,94837.91
2018-07-05T17:08:55.980Z,94833.58
2018-07-05T17:11:36.014Z,94840.91
2018-07-05T17:14:16.069Z,94841.11
2018-07-05T17:16:55.945Z,94836.39
2018-07-05T17:19:35.851Z,94837.41
2018-07-05T17:29:14.387Z,94844.98
2018-07-05T17:31:54.060Z,94844.72
2018-07-05T17:34:34.446Z,94836.20
2018-07-05T17:37:14.375Z,94840.48
2018-07-05T17:39:54.451Z,94838.56
2018-07-05T17:42:34.196Z,94845.94
2018-07-05T17:45:14.766Z,94843.02
2018-07-05T17:47:54.820Z,94844.44
2018-07-05T17:50:34.569Z,94846.35
2018-07-05T17:53:14.605Z,94846.89
2018-07-05T17:55:55.485Z,94850.34
2018-07-05T17:58:35.335Z,94852.27
2018-07-05T18:01:15.515Z,94846.63
2018-07-05T18:03:55.322Z,94844.89
2018-07-05T18:06:35.805Z,94847.58
2018-07-05T18:09:15.741Z,94846.98
2018-07-05T18:11:56.075Z,94841.81
2018-07-05T18:14:35.957Z,94846.98
2018-07-05T18:17:15.892Z,94849.89
2018-07-05T18:19:55.959Z,94846.70
2018-07-05T18:29:34.404Z,94856.70
2018-07-05T18:32:14.474Z,94865.17
2018-07-05T18:34:54.425Z,94854.39
2018-07-05T18:37:34.898Z,94856.83
2018-07-05T18:40:14.975Z,94860.88
2018-07-05T18:42:54.889Z,94862.48
2018-07-05T18:45:35.288Z,94868.36
2018-07-05T18:48:15.354Z,94874.78
2018-07-05T18:50:55.494Z,94874.26
2018-07-05T18:53:35.355Z,94874.76
2018-07-05T18:56:15.203Z,94877.70
2018-07-05T18:58:55.207Z,94878.41
2018-07-05T19:01:35.391Z,94881.93
2018-07-05T19:04:15.322Z,94879.95
2018-07-05T19:06:55.706Z,94878.41
2018-07-05T19:09:35.539Z,94878.32
2018-07-05T19:12:15.541Z,94891.83
2018-07-05T19:14:55.563Z,94889.30
2018-07-05T19:17:35.570Z,94892.18
2018-07-05T19:20:15.482Z,94885.59
2018-07-05T19:22:55.844Z,94888.07
2018-07-05T19:25:35.507Z,94892.44
2018-07-05T19:28:15.653Z,94890.55
2018-07-05T19:30:55.567Z,94888.97
2018-07-05T19:33:35.719Z,94889.90
2018-07-05T19:36:15.765Z,94892.97
2018-07-05T19:38:55.750Z,94890.41
2018-07-05T19:44:09.243Z,94898.19
2018-07-05T19:46:49.210Z,94894.56
2018-07-05T19:49:29.671Z,94894.16
2018-07-05T19:52:09.828Z,94898.81
2018-07-05T19:54:50.160Z,94885.86
2018-07-05T19:57:30.070Z,94888.83
2018-07-05T20:00:11.106Z,94892.73
2018-07-05T20:02:51.082Z,94885.30
2018-07-05T20:05:31.009Z,94887.20
2018-07-05T20:08:11.092Z,94891.14
2018-07-05T20:10:55.558Z,94892.97
2018-07-05T20:13:35.503Z,94889.69
2018-07-05T20:16:15.550Z,94891.20
2018-07-05T20:18:55.676Z,94893.27
2018-07-05T20:21:36.691Z,94893.98
2018-07-05T20:24:16.485Z,94890.66
2018-07-05T20:26:56.996Z,94889.64
2018-07-05T20:29:37.022Z,94892.73
2018-07-05T20:32:17.272Z,94894.05
2018-07-05T20:34:57.238Z,94891.02
2018-07-05T20:37:37.009Z,94889.86
2018-07-05T20:40:16.990Z,94886.84
2018-07-05T20:42:57.485Z,94891.45
2018-07-05T20:45:37.462Z,94891.67
2018-07-05T20:48:17.804Z,94889.58
2018-07-05T20:50:57.888Z,94897.62
2018-07-05T20:53:37.701Z,94897.31
2018-07-05T20:56:17.531Z,94891.05
2018-07-05T20:58:57.837Z,94888.87
2018-07-05T21:01:37.886Z,94892.88
2018-07-05T21:04:18.359Z,94898.88
2018-07-05T21:06:58.407Z,94897.45
2018-07-05T21:09:38.873Z,94902.81
2018-07-05T21:12:18.906Z,94899.97
2018-07-05T21:14:59.187Z,94898.08
2018-07-05T21:17:38.887Z,94896.91
2018-07-05T21:20:19.185Z,94892.77
2018-07-05T21:22:59.213Z,94899.25
2018-07-05T21:25:39.800Z,94894.70
2018-07-05T21:28:19.731Z,94899.96
2018-07-05T21:30:59.615Z,94896.75
2018-07-05T21:33:39.553Z,94903.00
2018-07-05T21:36:20.193Z,94897.00
2018-07-05T21:39:00.371Z,94853.58
2018-07-05T21:41:44.200Z,94907.72
2018-07-05T21:44:24.075Z,94906.94
2018-07-05T21:47:06.465Z,94909.70
2018-07-05T21:49:47.327Z,94908.85
2018-07-05T21:52:28.509Z,94903.16
2018-07-05T21:55:08.687Z,94903.51
2018-07-05T21:57:48.885Z,94905.09
2018-07-05T22:00:28.896Z,94901.52
2018-07-05T22:03:09.065Z,94906.43
2018-07-05T22:05:50.292Z,94904.17
2018-07-05T22:08:30.776Z,94903.08
2018-07-05T22:11:10.737Z,94901.74
2018-07-05T22:13:52.558Z,94895.16
2018-07-05T22:16:35.263Z,94902.44
2018-07-05T22:19:20.818Z,94907.00
2018-07-05T22:22:06.085Z,94904.88
2018-07-05T22:24:51.726Z,94905.11
2018-07-05T22:27:36.935Z,94899.08
2018-07-05T22:30:22.029Z,94902.44
2018-07-05T22:33:02.008Z,94895.85
2018-07-05T22:35:43.375Z,94898.66
2018-07-05T22:38:23.144Z,94900.31
2018-07-05T22:41:04.159Z,94898.33
2018-07-05T22:43:43.926Z,94901.34
2018-07-05T22:46:24.520Z,94895.98
2018-07-05T22:49:04.585Z,94903.91
2018-07-05T22:51:44.962Z,94902.34
2018-07-05T22:54:25.086Z,94897.78
2018-07-05T22:57:05.618Z,94892.22
2018-07-05T22:59:45.678Z,94895.55
2018-07-05T23:02:25.771Z,94896.67
2018-07-05T23:05:05.904Z,94893.11
2018-07-05T23:07:46.279Z,94898.02
2018-07-05T23:10:26.085Z,94891.77
2018-07-05T23:13:07.986Z,94887.89
2018-07-05T23:15:50.322Z,94887.78
2018-07-05T23:18:30.447Z,94896.70
2018-07-05T23:21:10.299Z,94892.69
2018-07-05T23:23:50.694Z,94893.33
2018-07-05T23:26:31.203Z,94893.33
2018-07-05T23:29:11.103Z,94893.80
2018-07-05T23:31:51.041Z,94898.70
2018-07-05T23:34:31.587Z,94890.41
2018-07-05T23:37:11.638Z,94895.31
2018-07-05T23:39:52.149Z,94893.77
2018-07-05T23:42:32.117Z,94890.98
2018-07-05T23:45:12.670Z,94891.09
